createdAt,value
2022-10-22T00:01:54.200Z,15.14
2022-10-22T00:07:32.582Z,15.05
2022-10-22T00:10:19.496Z,15.13
2022-10-22T00:13:06.418Z,15.17
2022-10-22T00:15:53.251Z,15.17
2022-10-22T00:18:40.757Z,15.14
2022-10-22T00:21:29.084Z,15.12
2022-10-22T00:24:18.060Z,15.12
2022-10-22T00:27:06.046Z,15.16
2022-10-22T00:29:52.865Z,15.17
2022-10-22T00:32:42.211Z,15.15
2022-10-22T00:35:29.197Z,15.13
2022-10-22T00:38:16.111Z,15.04
2022-10-22T00:41:03.035Z,14.96
2022-10-22T00:44:02.636Z,15.01
2022-10-22T00:46:49.412Z,14.93
2022-10-22T00:49:36.428Z,14.77
2022-10-22T00:52:23.604Z,14.83
2022-10-22T00:55:11.436Z,14.89
2022-10-22T00:57:58.857Z,14.96
2022-10-22T01:00:45.696Z,14.98
2022-10-22T01:03:32.901Z,15.02
2022-10-22T01:06:26.685Z,15.04
2022-10-22T01:09:28.089Z,15.09
2022-10-22T01:12:51.341Z,15.07
2022-10-22T01:16:08.880Z,15.07
2022-10-22T01:19:30.353Z,14.93
2022-10-22T01:22:34.250Z,14.83
2022-10-22T01:25:34.184Z,14.91
2022-10-22T01:28:31.617Z,15.03
2022-10-22T01:31:22.378Z,15.06
2022-10-22T01:34:12.041Z,15.00
2022-10-22T01:37:00.337Z,14.95
2022-10-22T01:39:48.159Z,14.93
2022-10-22T01:42:34.953Z,14.89
2022-10-22T01:45:21.774Z,14.97
2022-10-22T01:48:32.908Z,14.95
2022-10-22T01:51:37.975Z,14.95
2022-10-22T01:54:49.404Z,14.89
2022-10-22T01:58:03.483Z,14.87
2022-10-22T02:01:07.487Z,14.89
2022-10-22T02:04:07.581Z,14.89
2022-10-22T02:07:01.456Z,14.83
2022-10-22T02:09:50.444Z,14.73
2022-10-22T02:12:40.274Z,14.80
2022-10-22T02:15:31.495Z,14.84
2022-10-22T02:18:22.297Z,14.81
2022-10-22T02:21:09.587Z,14.65
2022-10-22T02:23:56.451Z,14.64
2022-10-22T02:26:53.372Z,14.60
2022-10-22T02:29:43.314Z,14.75
2022-10-22T02:32:38.841Z,14.81
2022-10-22T02:35:07.292Z,14.69
2022-10-22T02:37:33.997Z,14.72
2022-10-22T02:40:03.320Z,14.79
2022-10-22T02:42:30.037Z,14.75
2022-10-22T02:44:56.594Z,14.81
2022-10-22T02:47:23.016Z,14.82
2022-10-22T02:49:49.612Z,14.52
2022-10-22T02:52:16.088Z,14.39
2022-10-22T02:54:42.581Z,14.36
2022-10-22T02:57:09.202Z,14.47
2022-10-22T02:59:35.721Z,14.50
2022-10-22T03:02:04.548Z,14.66
2022-10-22T03:04:31.173Z,14.40
2022-10-22T03:06:57.834Z,14.67
2022-10-22T03:09:24.978Z,14.70
2022-10-22T03:11:51.910Z,14.71
2022-10-22T03:14:18.621Z,14.68
2022-10-22T03:16:45.184Z,14.73
2022-10-22T03:19:11.740Z,14.57
2022-10-22T03:21:43.939Z,14.65
2022-10-22T03:24:21.315Z,14.68
2022-10-22T03:26:50.401Z,14.53
2022-10-22T03:29:19.137Z,14.55
2022-10-22T03:31:47.741Z,14.63
2022-10-22T03:34:14.636Z,14.41
2022-10-22T03:36:41.877Z,14.47
2022-10-22T03:39:09.044Z,14.55
2022-10-22T03:41:38.002Z,14.54
2022-10-22T03:44:05.119Z,14.52
2022-10-22T03:46:31.590Z,14.56
2022-10-22T03:49:00.197Z,14.48
2022-10-22T03:51:28.962Z,14.41
2022-10-22T03:53:55.768Z,14.57
2022-10-22T03:56:22.389Z,14.49
2022-10-22T03:58:48.948Z,14.60
2022-10-22T04:01:15.417Z,14.21
2022-10-22T04:03:41.912Z,14.44
2022-10-22T04:06:11.680Z,14.50
2022-10-22T04:08:45.239Z,14.56
2022-10-22T04:11:13.468Z,14.58
2022-10-22T04:13:40.164Z,14.57
2022-10-22T04:16:14.608Z,14.51
2022-10-22T04:18:42.269Z,14.54
2022-10-22T04:21:12.445Z,14.53
2022-10-22T04:23:38.964Z,14.48
2022-10-22T04:26:07.532Z,14.40
2022-10-22T04:28:34.690Z,14.36
2022-10-22T04:31:01.213Z,14.29
2022-10-22T04:33:27.684Z,14.35
2022-10-22T04:35:54.071Z,14.41
2022-10-22T04:38:20.500Z,14.35
2022-10-22T04:40:46.945Z,14.38
2022-10-22T04:43:13.442Z,14.35
2022-10-22T04:45:42.036Z,14.41
2022-10-22T04:48:10.931Z,14.39
2022-10-22T04:50:37.456Z,14.37
2022-10-22T04:53:11.560Z,14.44
2022-10-22T04:55:38.008Z,14.53
2022-10-22T04:58:04.581Z,14.29
2022-10-22T05:00:31.025Z,14.29
2022-10-22T05:02:57.456Z,14.46
2022-10-22T05:05:25.703Z,14.51
2022-10-22T05:08:06.860Z,14.50
2022-10-22T05:10:40.987Z,14.40
2022-10-22T05:13:08.206Z,14.41
2022-10-22T05:15:34.665Z,14.31
2022-10-22T05:18:01.853Z,14.38
2022-10-22T05:20:31.113Z,14.30
2022-10-22T05:22:57.632Z,14.32
2022-10-22T05:25:24.081Z,14.38
2022-10-22T05:27:50.591Z,14.35
2022-10-22T05:30:17.094Z,14.29
2022-10-22T05:32:46.246Z,14.29
2022-10-22T05:35:12.755Z,14.32
2022-10-22T05:37:40.687Z,14.29
2022-10-22T05:40:19.319Z,14.04
2022-10-22T05:42:53.418Z,14.12
2022-10-22T05:45:20.133Z,14.16
2022-10-22T05:47:46.615Z,14.16
2022-10-22T05:50:13.177Z,14.17
2022-10-22T05:52:39.982Z,14.16
2022-10-22T05:55:06.950Z,14.12
2022-10-22T05:57:33.464Z,14.03
2022-10-22T06:00:02.013Z,14.02
2022-10-22T06:02:30.976Z,14.04
2022-10-22T06:04:57.432Z,13.93
2022-10-22T06:07:23.924Z,14.03
2022-10-22T06:09:50.493Z,14.03
2022-10-22T06:12:17.004Z,13.95
2022-10-22T06:14:43.441Z,13.77
2022-10-22T06:17:12.177Z,13.93
2022-10-22T06:19:38.885Z,13.95
2022-10-22T06:22:05.349Z,14.04
2022-10-22T06:24:31.909Z,13.94
2022-10-22T06:26:58.415Z,13.97
2022-10-22T06:29:29.500Z,14.06
2022-10-22T06:31:55.957Z,14.15
2022-10-22T06:34:22.403Z,14.10
2022-10-22T06:36:48.913Z,14.09
2022-10-22T06:39:19.692Z,14.14
2022-10-22T06:41:46.825Z,14.23
2022-10-22T06:44:18.308Z,14.24
2022-10-22T06:46:45.208Z,14.10
2022-10-22T06:49:14.240Z,14.23
2022-10-22T06:51:41.160Z,14.34
2022-10-22T06:54:07.641Z,14.24
2022-10-22T06:56:34.096Z,14.30
2022-10-22T06:59:00.567Z,14.47
2022-10-22T07:01:31.204Z,14.57
2022-10-22T07:04:01.213Z,14.60
2022-10-22T07:06:29.013Z,14.68
2022-10-22T07:08:57.350Z,14.64
2022-10-22T07:11:32.529Z,14.53
2022-10-22T07:13:59.864Z,14.54
2022-10-22T07:16:29.654Z,14.40
2022-10-22T07:19:01.594Z,14.40
2022-10-22T07:21:28.922Z,14.60
2022-10-22T07:23:59.758Z,14.61
2022-10-22T07:26:30.444Z,14.68
2022-10-22T07:29:00.748Z,14.83
2022-10-22T07:31:29.798Z,14.88
2022-10-22T07:33:56.909Z,15.02
2022-10-22T07:36:23.529Z,15.05
2022-10-22T07:38:57.113Z,15.38
2022-10-22T07:41:24.070Z,15.57
2022-10-22T07:43:52.981Z,15.64
2022-10-22T07:46:20.091Z,15.72
2022-10-22T07:48:46.874Z,15.63
2022-10-22T07:51:13.740Z,15.93
2022-10-22T07:53:40.255Z,16.10
2022-10-22T07:56:07.637Z,16.50
2022-10-22T07:58:36.687Z,16.90
2022-10-22T08:01:05.685Z,17.06
2022-10-22T08:03:32.884Z,17.14
2022-10-22T08:06:02.004Z,17.33
2022-10-22T08:08:30.778Z,17.77
2022-10-22T08:11:01.933Z,17.78
2022-10-22T08:13:30.677Z,18.41
2022-10-22T08:16:01.485Z,19.08
2022-10-22T08:18:31.376Z,19.28
2022-10-22T08:20:57.969Z,18.97
2022-10-22T08:23:26.209Z,19.75
2022-10-22T08:25:55.884Z,21.81
2022-10-22T08:28:22.498Z,23.39
2022-10-22T08:30:49.465Z,24.94
2022-10-22T08:33:16.011Z,26.42
2022-10-22T08:35:49.475Z,28.53
2022-10-22T08:38:16.205Z,26.98
2022-10-22T08:43:18.474Z,27.80
2022-10-22T08:46:25.068Z,24.94
2022-10-22T08:48:57.117Z,24.53
2022-10-22T08:51:27.512Z,26.77
2022-10-22T08:54:35.342Z,31.99
2022-10-22T09:00:12.173Z,34.53
2022-10-22T09:03:30.644Z,33.24
2022-10-22T09:06:18.755Z,30.95
2022-10-22T09:08:48.683Z,30.61
2022-10-22T09:11:37.782Z,31.25
2022-10-22T09:14:05.153Z,33.98
2022-10-22T09:17:02.190Z,37.15
2022-10-22T09:19:39.855Z,38.47
2022-10-22T09:22:38.194Z,38.10
2022-10-22T09:25:26.269Z,29.65
2022-10-22T09:27:58.134Z,26.17
2022-10-22T09:30:28.356Z,24.64
2022-10-22T09:33:00.769Z,23.74
2022-10-22T09:35:34.612Z,23.92
2022-10-22T09:38:08.669Z,25.96
2022-10-22T09:40:51.776Z,24.09
2022-10-22T09:43:19.153Z,23.76
2022-10-22T09:45:47.003Z,22.62
2022-10-22T09:48:30.491Z,25.98
2022-10-22T09:51:11.231Z,31.82
2022-10-22T09:53:42.624Z,32.00
2022-10-22T09:56:36.703Z,31.06
2022-10-22T09:59:06.524Z,36.05
2022-10-22T10:01:35.359Z,38.90
2022-10-22T10:04:09.779Z,39.20
2022-10-22T10:06:40.270Z,40.54
2022-10-22T10:09:19.157Z,37.48
2022-10-22T10:11:54.204Z,29.20
2022-10-22T10:14:26.669Z,26.39
2022-10-22T10:17:04.129Z,25.20
2022-10-22T10:19:54.170Z,24.32
2022-10-22T10:22:58.726Z,23.92
2022-10-22T10:25:53.193Z,23.17
2022-10-22T10:28:36.645Z,23.41
2022-10-22T10:31:17.074Z,23.61
2022-10-22T10:33:58.545Z,23.84
2022-10-22T10:36:31.053Z,23.71
2022-10-22T10:38:57.423Z,23.67
2022-10-22T10:41:39.028Z,22.29
2022-10-22T10:44:11.483Z,21.39
2022-10-22T10:46:59.484Z,20.60
2022-10-22T10:49:31.594Z,20.61
2022-10-22T10:52:02.155Z,20.69
2022-10-22T10:54:44.613Z,20.76
2022-10-22T10:57:24.845Z,20.79
2022-10-22T10:59:51.341Z,21.03
2022-10-22T11:02:47.968Z,20.75
2022-10-22T11:05:20.344Z,20.61
2022-10-22T11:07:55.933Z,20.62
2022-10-22T11:10:35.397Z,20.92
2022-10-22T11:13:43.129Z,20.89
2022-10-22T11:16:30.557Z,20.92
2022-10-22T11:19:22.855Z,20.98
2022-10-22T11:22:09.350Z,20.80
2022-10-22T11:24:51.949Z,20.76
2022-10-22T11:27:40.018Z,20.78
2022-10-22T11:30:18.884Z,20.66
2022-10-22T11:32:55.058Z,20.51
2022-10-22T11:35:27.869Z,20.57
2022-10-22T11:37:56.851Z,20.52
2022-10-22T11:40:23.361Z,20.52
2022-10-22T11:42:54.017Z,20.39
2022-10-22T11:45:23.188Z,20.27
2022-10-22T11:48:15.690Z,20.16
2022-10-22T11:51:02.170Z,20.02
2022-10-22T11:53:37.556Z,19.57
2022-10-22T11:56:07.005Z,19.87
2022-10-22T11:58:41.985Z,20.01
2022-10-22T12:01:08.393Z,19.87
2022-10-22T12:03:34.816Z,19.71
2022-10-22T12:06:14.968Z,19.71
2022-10-22T12:08:54.088Z,19.69
2022-10-22T12:11:35.708Z,19.70
2022-10-22T12:14:02.224Z,19.75
2022-10-22T12:16:55.666Z,19.87
2022-10-22T12:19:23.252Z,19.88
2022-10-22T12:21:55.236Z,19.95
2022-10-22T12:24:24.009Z,20.04
2022-10-22T12:26:52.429Z,19.94
2022-10-22T12:29:23.649Z,20.01
2022-10-22T12:31:50.470Z,19.87
2022-10-22T12:34:21.577Z,19.90
2022-10-22T12:36:53.290Z,19.99
2022-10-22T12:39:22.698Z,20.06
2022-10-22T12:41:49.286Z,19.97
2022-10-22T12:44:17.766Z,20.00
2022-10-22T12:46:48.019Z,19.93
2022-10-22T12:49:24.886Z,20.04
2022-10-22T12:51:51.414Z,20.09
2022-10-22T12:54:27.933Z,20.07
2022-10-22T12:56:56.248Z,20.15
2022-10-22T12:59:29.941Z,20.13
2022-10-22T13:02:01.342Z,20.11
2022-10-22T13:04:37.502Z,20.21
2022-10-22T13:07:12.868Z,20.26
2022-10-22T13:09:56.658Z,20.17
2022-10-22T13:12:28.704Z,20.12
2022-10-22T13:14:57.461Z,20.04
2022-10-22T13:17:41.511Z,20.10
2022-10-22T13:20:21.957Z,20.07
2022-10-22T13:22:57.507Z,19.67
2022-10-22T13:25:26.161Z,19.75
2022-10-22T13:28:12.534Z,19.90
2022-10-22T13:30:51.114Z,19.97
2022-10-22T13:33:39.277Z,19.85
2022-10-22T13:36:06.174Z,19.74
2022-10-22T13:38:34.928Z,19.83
2022-10-22T13:41:03.114Z,19.62
2022-10-22T13:43:32.015Z,19.62
2022-10-22T13:46:03.229Z,19.42
2022-10-22T13:48:30.567Z,19.54
2022-10-22T13:50:59.556Z,19.59
2022-10-22T13:53:28.428Z,19.68
2022-10-22T13:55:55.264Z,19.65
2022-10-22T13:58:26.642Z,19.64
2022-10-22T14:00:56.805Z,19.72
2022-10-22T14:03:28.504Z,19.70
2022-10-22T14:05:55.155Z,19.60
2022-10-22T14:08:25.660Z,19.66
2022-10-22T14:10:56.848Z,19.69
2022-10-22T14:13:23.633Z,19.68
2022-10-22T14:15:52.203Z,19.64
2022-10-22T14:18:31.386Z,19.58
2022-10-22T14:21:00.660Z,19.64
2022-10-22T14:23:29.480Z,19.61
2022-10-22T14:25:56.232Z,19.61
2022-10-22T14:28:22.693Z,19.61
2022-10-22T14:30:52.339Z,19.57
2022-10-22T14:33:28.757Z,19.44
2022-10-22T14:36:00.769Z,19.45
2022-10-22T14:38:27.388Z,19.40
2022-10-22T14:40:54.725Z,19.35
2022-10-22T14:43:28.438Z,19.35
2022-10-22T14:45:55.515Z,19.32
2022-10-22T14:48:21.982Z,19.38
2022-10-22T14:50:50.977Z,19.38
2022-10-22T14:53:17.703Z,19.27
2022-10-22T14:55:47.040Z,19.34
2022-10-22T14:58:14.028Z,19.30
2022-10-22T15:00:44.339Z,19.33
2022-10-22T15:03:11.727Z,19.30
2022-10-22T15:05:44.230Z,19.17
2022-10-22T15:08:12.504Z,19.06
2022-10-22T15:10:39.091Z,19.04
2022-10-22T15:13:05.960Z,19.06
2022-10-22T15:15:34.156Z,19.09
2022-10-22T15:18:05.748Z,19.12
2022-10-22T15:20:34.580Z,19.04
2022-10-22T15:23:03.594Z,19.03
2022-10-22T15:25:32.444Z,18.87
2022-10-22T15:28:03.367Z,18.91
2022-10-22T15:30:34.001Z,18.88
2022-10-22T15:33:01.844Z,18.77
2022-10-22T15:35:30.760Z,18.79
2022-10-22T15:37:59.412Z,18.65
2022-10-22T15:40:25.940Z,18.70
2022-10-22T15:42:52.348Z,18.67
2022-10-22T15:45:21.207Z,18.64
2022-10-22T15:47:48.520Z,18.29
2022-10-22T15:50:15.710Z,18.37
2022-10-22T15:52:42.196Z,18.41
2022-10-22T15:55:10.449Z,18.32
2022-10-22T15:57:38.287Z,18.29
2022-10-22T16:00:07.148Z,18.31
2022-10-22T16:02:39.043Z,18.29
2022-10-22T16:05:08.404Z,18.31
2022-10-22T16:07:37.288Z,18.30
2022-10-22T16:10:04.896Z,18.27
2022-10-22T16:12:31.335Z,18.30
2022-10-22T16:15:02.670Z,18.27
2022-10-22T16:17:31.217Z,18.25
2022-10-22T16:19:57.665Z,18.16
2022-10-22T16:22:24.140Z,18.16
2022-10-22T16:24:50.565Z,18.18
2022-10-22T16:27:17.085Z,18.16
2022-10-22T16:29:43.537Z,18.02
2022-10-22T16:32:10.052Z,18.07
2022-10-22T16:34:36.472Z,17.97
2022-10-22T16:37:02.995Z,17.96
2022-10-22T16:39:29.470Z,17.88
2022-10-22T16:41:55.934Z,17.79
2022-10-22T16:44:22.537Z,17.72
2022-10-22T16:46:48.982Z,17.66
2022-10-22T16:49:17.824Z,17.60
2022-10-22T16:51:44.251Z,17.56
2022-10-22T16:54:12.942Z,17.47
2022-10-22T16:56:41.739Z,17.32
2022-10-22T16:59:08.647Z,17.36
2022-10-22T17:01:40.291Z,17.40
2022-10-22T17:04:26.126Z,17.35
2022-10-22T17:07:11.404Z,17.28
2022-10-22T17:09:58.172Z,17.17
2022-10-22T17:12:45.949Z,17.07
2022-10-22T17:15:32.784Z,16.96
2022-10-22T17:18:19.867Z,16.94
2022-10-22T17:21:08.558Z,16.93
2022-10-22T17:23:57.105Z,16.66
2022-10-22T17:26:47.476Z,16.61
2022-10-22T17:29:36.690Z,16.54
2022-10-22T17:32:25.734Z,16.58
2022-10-22T17:35:15.488Z,16.62
2022-10-22T17:38:04.693Z,16.52
2022-10-22T17:40:51.619Z,16.54
2022-10-22T17:43:38.908Z,16.41
2022-10-22T17:46:28.475Z,16.40
2022-10-22T17:49:19.132Z,16.41
2022-10-22T17:52:05.890Z,16.24
2022-10-22T17:54:53.194Z,16.24
2022-10-22T17:57:40.173Z,16.14
2022-10-22T18:00:29.049Z,16.01
2022-10-22T18:03:15.825Z,15.95
2022-10-22T18:06:10.212Z,15.91
2022-10-22T18:08:57.311Z,15.93
2022-10-22T18:11:44.902Z,15.94
2022-10-22T18:14:31.703Z,15.93
2022-10-22T18:17:20.808Z,15.93
2022-10-22T18:20:08.270Z,15.91
2022-10-22T18:22:55.218Z,15.87
2022-10-22T18:25:41.980Z,15.80
2022-10-22T18:28:28.772Z,15.76
2022-10-22T18:31:24.066Z,15.76
2022-10-22T18:34:11.608Z,15.71
2022-10-22T18:36:58.385Z,15.58
2022-10-22T18:39:45.179Z,15.40
2022-10-22T18:42:33.734Z,15.39
2022-10-22T18:45:22.588Z,15.40
2022-10-22T18:48:09.711Z,15.31
2022-10-22T18:51:03.221Z,15.38
2022-10-22T18:54:04.528Z,15.24
2022-10-22T18:57:02.569Z,15.32
2022-10-22T18:59:49.851Z,15.37
2022-10-22T19:02:37.503Z,15.38
2022-10-22T19:05:24.293Z,15.36
2022-10-22T19:08:12.045Z,15.37
2022-10-22T19:10:58.832Z,15.33
2022-10-22T19:13:47.803Z,15.34
2022-10-22T19:16:35.196Z,15.37
2022-10-22T19:19:22.518Z,15.31
2022-10-22T19:22:09.316Z,15.20
2022-10-22T19:24:56.344Z,15.25
2022-10-22T19:27:45.412Z,15.26
2022-10-22T19:30:32.299Z,15.26
2022-10-22T19:33:21.553Z,15.20
2022-10-22T19:36:13.630Z,15.10
2022-10-22T19:39:00.809Z,15.08
2022-10-22T19:41:47.695Z,15.03
2022-10-22T19:44:34.508Z,15.01
2022-10-22T19:47:21.837Z,15.04
2022-10-22T19:50:08.703Z,15.03
2022-10-22T19:52:59.527Z,14.89
2022-10-22T19:55:46.391Z,14.92
2022-10-22T19:58:33.707Z,14.86
2022-10-22T20:01:21.488Z,14.72
2022-10-22T20:04:09.713Z,14.80
2022-10-22T20:06:56.984Z,14.78
2022-10-22T20:09:43.793Z,14.75
2022-10-22T20:12:30.629Z,14.69
2022-10-22T20:15:18.485Z,14.67
2022-10-22T20:18:05.328Z,14.70
2022-10-22T20:20:52.459Z,14.68
2022-10-22T20:23:39.478Z,14.68
2022-10-22T20:26:29.472Z,14.70
2022-10-22T20:29:18.948Z,14.69
2022-10-22T20:32:08.104Z,14.47
2022-10-22T20:34:55.724Z,14.60
2022-10-22T20:37:42.602Z,14.62
2022-10-22T20:40:32.133Z,14.61
2022-10-22T20:43:18.950Z,14.63
2022-10-22T20:46:05.887Z,14.61
2022-10-22T20:48:55.282Z,14.60
2022-10-22T20:51:42.378Z,14.55
2022-10-22T20:54:29.209Z,14.50
2022-10-22T20:57:16.029Z,14.41
2022-10-22T21:00:03.515Z,14.42
2022-10-22T21:02:50.377Z,14.30
2022-10-22T21:05:37.187Z,14.27
2022-10-22T21:08:24.012Z,14.27
2022-10-22T21:11:10.835Z,14.29
2022-10-22T21:13:57.743Z,14.19
2022-10-22T21:16:46.898Z,14.27
2022-10-22T21:19:33.881Z,14.24
2022-10-22T21:22:20.768Z,14.23
2022-10-22T21:25:07.971Z,14.22
2022-10-22T21:27:54.743Z,14.15
2022-10-22T21:30:45.515Z,14.00
2022-10-22T21:33:36.206Z,14.01
2022-10-22T21:36:24.997Z,14.03
2022-10-22T21:39:13.467Z,14.07
2022-10-22T21:42:00.247Z,14.10
2022-10-22T21:44:47.104Z,14.05
2022-10-22T21:47:33.931Z,14.05
2022-10-22T21:50:23.016Z,14.06
2022-10-22T21:53:12.028Z,14.02
2022-10-22T21:55:58.814Z,14.04
2022-10-22T21:58:45.904Z,14.04
2022-10-22T22:01:35.579Z,13.94
2022-10-22T22:04:22.416Z,13.93
2022-10-22T22:07:09.165Z,13.91
2022-10-22T22:09:55.972Z,13.75
2022-10-22T22:12:42.974Z,13.59
2022-10-22T22:15:31.515Z,13.61
2022-10-22T22:18:21.656Z,13.62
2022-10-22T22:21:11.983Z,13.65
2022-10-22T22:23:59.261Z,13.67
2022-10-22T22:26:46.025Z,13.70
2022-10-22T22:29:35.087Z,13.69
2022-10-22T22:32:21.859Z,13.68
2022-10-22T22:35:08.694Z,13.57
2022-10-22T22:37:55.540Z,13.51
2022-10-22T22:40:45.466Z,13.57
2022-10-22T22:43:32.492Z,13.54
2022-10-22T22:46:21.740Z,13.46
2022-10-22T22:49:08.944Z,13.53
2022-10-22T22:51:55.791Z,13.58
2022-10-22T22:54:42.535Z,13.51
2022-10-22T22:57:29.303Z,13.53
2022-10-22T23:00:16.408Z,13.55
2022-10-22T23:03:03.678Z,13.41
2022-10-22T23:05:50.462Z,13.20
2022-10-22T23:08:37.706Z,13.08
2022-10-22T23:11:26.087Z,13.19
2022-10-22T23:14:14.907Z,13.20
2022-10-22T23:17:01.660Z,13.08
2022-10-22T23:19:48.513Z,13.09
2022-10-22T23:22:35.265Z,12.99
2022-10-22T23:25:22.044Z,12.97
2022-10-22T23:28:08.816Z,13.03
2022-10-22T23:30:56.397Z,13.10
2022-10-22T23:33:43.809Z,13.16
2022-10-22T23:36:30.623Z,13.10
2022-10-22T23:39:21.270Z,13.08
2022-10-22T23:42:08.104Z,12.98
2022-10-22T23:44:57.249Z,12.96
2022-10-22T23:47:44.312Z,13.06
2022-10-22T23:50:31.376Z,13.03
2022-10-22T23:53:18.103Z,12.97
2022-10-22T23:56:07.012Z,12.94
2022-10-22T23:58:54.828Z,12.88
